Portada
METAR-TAF:

METAR-TAF

Aeroports :

Bluefields, Nicaragua

latitud: 12-00N, longitud: 083-46W, altitud: 5 m

Observació

L'informe es va fer fa 8 hores i 12 minuts, a les 23:00 UTC
Vent 4 kt del Est
Temperatura 29°C
Humitat 84%
Pressió 1008 hPa
Visibilitat 10 km o més
Escasses núvols a una alçada de 1800 ft, Cumulonimbus.

METAR: MNBL 232300Z 10004KT 9999 FEW018CB 29/26 Q1008

Hora: 01:12 (07:12 UTC)

Pronòstic

L'informe es va fer fa 9 hores i 34 minuts, a les 21:38 UTC
Pronòstic vàlid del 24 a les 00 UTC al 24 a les 24 UTC
Vent 4 kt del Est
Visibilitat 10 km o més
Escasses núvols a una alçada de 1800 ft, Cumulonimbus.
Núvols disperses a una alçada de 8000 ft
Temporalment
l' 24 a les 02 UTC al 24 a les 08 UTC
Vent 6 kt del Sud/Sud-Est
Visibilitat: 5000 m
Núvols disperses a una alçada de 1700 ft, Cumulonimbus.
Núvols disperses a una alçada de 7000 ft

TAF: MNBL 232138Z 2400/2424 10004KT 9999 FEW018CB SCT080 TEMPO 2402/2408 15006KT 5000 TSRA/DZ SCT017CB SCT070

Observacions i pronòstics meteorològics de més de 4000 aeroports (METAR i TAF).

Les estacions disponibles són els punts grocs i vermells al mapa.

Posi el ratolí al punt desitjat per veure el nom de l'estació.

Feu clic per veure les observacions i els pronòstics meteorològics.

Per canviar el mapa: feu clic els botons verds amb una creu de color negre per apropar; al botó verd amb un guió per allunyar la imatge; o en les fletxes verdes per a mapes adjacents.


METAR-TAF: